Time;durP1;ratioP1;P1;durP2;ratioP2;P2;SDS_P1;SDS_P2;PMS_P1;PMS_P2;Temp;Humidity;BMP_temperature;BMP_pressure;BME280_temperature;BME280_humidity;BME280_pressure;Samples;Min_cycle;Max_cycle;Signal;HPM_P1;HPM_P2
2024/03/12 00:00:37;;;;;;;;;;;8.40;99.90;;;;;;6736866;88;20137;-76
2024/03/12 00:10:38;;;;;;;;;;;8.50;99.90;;;;;;6736374;88;20086;-76
2024/03/12 00:20:39;;;;;;;;;;;8.50;99.90;;;;;;6739052;88;20124;-76
2024/03/12 00:30:40;;;;;;;;;;;8.40;99.90;;;;;;6744724;88;20547;-76
2024/03/12 00:40:42;;;;;;;;;;;8.40;99.90;;;;;;6743389;88;20196;-76
2024/03/12 00:50:45;;;;;;;;;;;8.30;99.90;;;;;;6735105;88;20147;-77
2024/03/12 01:00:45;;;;;;;;;;;8.40;99.90;;;;;;6744949;88;20501;-77
2024/03/12 01:10:46;;;;;;;;;;;8.20;99.90;;;;;;6734519;88;20210;-78
2024/03/12 01:20:46;;;;;;;;;;;8.10;99.90;;;;;;6744865;88;20111;-77
2024/03/12 01:30:47;;;;;;;;;;;8.00;99.90;;;;;;6742076;88;20070;-77
2024/03/12 01:40:47;;;;;;;;;;;7.90;99.90;;;;;;6734819;88;20077;-77
2024/03/12 01:50:48;;;;;;;;;;;7.90;99.90;;;;;;6734078;88;20080;-76
2024/03/12 02:00:48;;;;;;;;;;;7.90;99.90;;;;;;6734497;88;20090;-76
2024/03/12 02:10:49;;;;;;;;;;;7.90;99.90;;;;;;6735069;88;20782;-76
2024/03/12 02:20:50;;;;;;;;;;;7.80;99.90;;;;;;6734852;88;20478;-77
2024/03/12 02:30:50;;;;;;;;;;;7.80;99.90;;;;;;6736107;88;20061;-76
2024/03/12 02:40:51;;;;;;;;;;;7.90;99.90;;;;;;6734413;88;20105;-76
2024/03/12 02:50:51;;;;;;;;;;;7.90;99.90;;;;;;6735508;88;20500;-76
2024/03/12 03:00:53;;;;;;;;;;;7.90;99.90;;;;;;6744214;88;20069;-76
2024/03/12 03:10:54;;;;;;;;;;;7.90;99.90;;;;;;6731978;88;20182;-77
2024/03/12 03:20:54;;;;;;;;;;;7.90;99.90;;;;;;6733008;88;20526;-76
2024/03/12 03:30:58;;;;;;;;;;;8.00;99.90;;;;;;6732341;88;20202;-76
2024/03/12 03:40:59;;;;;;;;;;;8.00;99.90;;;;;;6737755;88;20548;-77
2024/03/12 03:51:00;;;;;;;;;;;8.00;99.90;;;;;;6732149;88;20103;-78
2024/03/12 04:01:00;;;;;;;;;;;8.00;99.90;;;;;;6740299;88;20718;-77
2024/03/12 04:11:01;;;;;;;;;;;8.00;99.90;;;;;;6743173;88;20216;-78
2024/03/12 04:21:01;;;;;;;;;;;7.90;99.90;;;;;;6743463;88;20634;-78
2024/03/12 04:31:02;;;;;;;;;;;7.90;99.90;;;;;;6738350;88;20109;-78
2024/03/12 04:41:02;;;;;;;;;;;8.10;99.90;;;;;;6744110;88;20077;-76
2024/03/12 04:51:03;;;;;;;;;;;7.90;99.90;;;;;;6742279;88;20072;-77
2024/03/12 05:01:05;;;;;;;;;;;7.80;99.90;;;;;;6741305;88;20502;-77
2024/03/12 05:11:06;;;;;;;;;;;7.70;99.90;;;;;;6742485;88;20577;-77
2024/03/12 05:21:06;;;;;;;;;;;7.60;99.90;;;;;;6748790;88;20085;-81
2024/03/12 05:31:08;;;;;;;;;;;7.60;99.90;;;;;;6742654;88;20104;-77
2024/03/12 05:51:09;;;;;;;;;;;7.60;99.90;;;;;;6742952;88;20070;-77
2024/03/12 06:01:09;;;;;;;;;;;7.60;99.90;;;;;;6743371;88;20133;-77
2024/03/12 06:11:10;;;;;;;;;;;7.70;99.90;;;;;;6748858;88;20054;-78
2024/03/12 06:21:11;;;;;;;;;;;7.70;99.90;;;;;;6741487;88;20132;-76
2024/03/12 06:31:11;;;;;;;;;;;7.80;99.90;;;;;;6746880;88;20080;-78
2024/03/12 06:41:12;;;;;;;;;;;7.70;99.90;;;;;;6744878;88;20091;-78
2024/03/12 06:51:12;;;;;;;;;;;7.80;99.90;;;;;;6739219;88;20066;-77
2024/03/12 07:01:13;;;;;;;;;;;7.80;99.90;;;;;;6741957;88;20071;-77
2024/03/12 07:11:17;;;;;;;;;;;7.80;99.90;;;;;;6746621;88;20172;-77
2024/03/12 07:21:17;;;;;;;;;;;7.80;99.90;;;;;;6748429;88;20062;-79
2024/03/12 07:31:19;;;;;;;;;;;7.90;99.90;;;;;;6756275;88;20622;-78
2024/03/12 07:41:20;;;;;;;;;;;7.90;99.90;;;;;;6749088;88;20051;-78
2024/03/12 07:51:20;;;;;;;;;;;7.70;99.90;;;;;;6745133;88;20070;-78
2024/03/12 08:01:21;;;;;;;;;;;7.70;99.90;;;;;;6747416;88;20539;-78
2024/03/12 08:11:21;;;;;;;;;;;7.70;99.90;;;;;;6744636;88;20068;-79
2024/03/12 08:21:22;;;;;;;;;;;7.70;99.90;;;;;;6744356;88;20070;-79
2024/03/12 08:31:22;;;;;;;;;;;7.80;99.90;;;;;;6739251;88;20116;-77
2024/03/12 08:41:23;;;;;;;;;;;7.80;99.90;;;;;;6740411;88;20074;-78
2024/03/12 08:51:23;;;;;;;;;;;7.80;99.90;;;;;;6744014;88;20092;-79
2024/03/12 09:01:24;;;;;;;;;;;7.90;99.90;;;;;;6744905;88;20082;-78
2024/03/12 09:11:25;;;;;;;;;;;7.90;99.90;;;;;;6746056;88;20045;-79
2024/03/12 09:21:27;;;;;;;;;;;7.90;99.90;;;;;;6746669;88;20066;-79
2024/03/12 09:31:28;;;;;;;;;;;8.20;99.90;;;;;;6746223;88;20075;-77
2024/03/12 09:41:28;;;;;;;;;;;8.20;99.90;;;;;;6738945;77;20062;-75
2024/03/12 09:51:30;;;;;;;;;;;8.40;99.90;;;;;;6726433;88;20128;-75
2024/03/12 10:01:31;;;;;;;;;;;8.50;99.90;;;;;;6737714;88;20057;-76
2024/03/12 10:11:33;;;;;;;;;;;8.60;99.90;;;;;;6730590;88;20073;-76
2024/03/12 10:21:34;;;;;;;;;;;8.70;99.90;;;;;;6737502;88;20066;-76
2024/03/12 10:31:39;;;;;;;;;;;8.80;99.90;;;;;;6729621;88;20075;-76
2024/03/12 10:41:43;;;;;;;;;;;8.80;99.90;;;;;;6731357;88;20492;-75
2024/03/12 10:51:43;;;;;;;;;;;9.00;99.90;;;;;;6737393;88;20074;-76
2024/03/12 11:01:44;;;;;;;;;;;9.00;99.90;;;;;;6730602;88;20104;-75
2024/03/12 11:11:46;;;;;;;;;;;9.10;99.90;;;;;;6732555;88;20058;-75
2024/03/12 11:21:49;;;;;;;;;;;9.30;99.90;;;;;;6729186;88;20071;-75
2024/03/12 11:31:51;;;;;;;;;;;9.30;99.90;;;;;;6729775;88;20061;-76
2024/03/12 11:41:57;;;;;;;;;;;9.60;99.90;;;;;;6725056;88;20099;-76
2024/03/12 11:51:58;;;;;;;;;;;9.90;99.90;;;;;;6726988;88;20058;-76
2024/03/12 12:01:58;;;;;;;;;;;10.10;99.90;;;;;;6727018;88;20173;-76
2024/03/12 12:11:59;;;;;;;;;;;10.20;99.90;;;;;;6726355;88;20089;-75
2024/03/12 12:21:59;;;;;;;;;;;10.70;99.90;;;;;;6727583;88;20192;-76
2024/03/12 12:32:00;;;;;;;;;;;10.50;99.90;;;;;;6730276;88;20148;-75
2024/03/12 12:42:01;;;;;;;;;;;10.80;99.90;;;;;;6728363;88;20051;-76
2024/03/12 12:52:03;;;;;;;;;;;11.10;99.90;;;;;;6730418;88;20060;-75
2024/03/12 13:02:13;;;;;;;;;;;12.00;99.90;;;;;;6729496;88;20062;-75
2024/03/12 13:12:14;;;;;;;;;;;12.00;99.90;;;;;;6730722;88;20097;-76
2024/03/12 13:22:15;;;;;;;;;;;11.80;99.90;;;;;;6728930;88;20053;-76
2024/03/12 13:32:15;;;;;;;;;;;11.80;99.90;;;;;;6733292;88;20062;-75
2024/03/12 13:42:16;;;;;;;;;;;11.50;99.90;;;;;;6734722;88;20054;-76
2024/03/12 13:52:16;;;;;;;;;;;11.30;99.90;;;;;;6733816;88;20051;-75
2024/03/12 14:02:17;;;;;;;;;;;11.20;99.90;;;;;;6731009;88;20090;-74
2024/03/12 14:12:17;;;;;;;;;;;10.70;99.90;;;;;;6736937;88;20267;-75
2024/03/12 14:22:19;;;;;;;;;;;10.60;99.90;;;;;;6732144;88;20058;-74
2024/03/12 14:32:20;;;;;;;;;;;10.40;99.90;;;;;;6730237;88;20070;-75
2024/03/12 14:42:22;;;;;;;;;;;10.50;99.90;;;;;;6739047;88;20638;-75
2024/03/12 14:52:22;;;;;;;;;;;10.70;99.90;;;;;;6727823;88;20116;-75
2024/03/12 15:02:23;;;;;;;;;;;11.00;99.90;;;;;;6727162;88;20556;-74
2024/03/12 15:12:23;;;;;;;;;;;11.10;99.90;;;;;;6731282;88;20059;-77
2024/03/12 15:22:24;;;;;;;;;;;11.40;99.90;;;;;;6736119;88;20070;-76
2024/03/12 15:32:26;;;;;;;;;;;11.10;99.90;;;;;;6724625;88;20530;-76
2024/03/12 15:42:27;;;;;;;;;;;11.10;99.90;;;;;;6722972;88;20051;-76
2024/03/12 16:02:31;;;;;;;;;;;10.80;99.90;;;;;;6710268;88;20084;-77
2024/03/12 16:12:32;;;;;;;;;;;10.70;99.90;;;;;;6701530;88;20114;-78
2024/03/12 16:22:32;;;;;;;;;;;10.50;99.90;;;;;;6700755;88;20087;-79
2024/03/12 16:32:35;;;;;;;;;;;10.40;99.90;;;;;;6699338;88;20089;-79
2024/03/12 16:42:35;;;;;;;;;;;10.40;99.90;;;;;;6695661;88;20056;-78
2024/03/12 16:52:37;;;;;;;;;;;10.30;99.90;;;;;;6701952;88;20113;-78
2024/03/12 17:02:44;;;;;;;;;;;10.20;99.90;;;;;;6690184;88;20538;-76
2024/03/12 17:12:44;;;;;;;;;;;10.10;99.90;;;;;;6692744;88;20196;-76
2024/03/12 17:22:46;;;;;;;;;;;10.10;99.90;;;;;;6698238;88;20071;-77
2024/03/12 17:32:47;;;;;;;;;;;10.00;99.90;;;;;;6691900;88;20422;-77
2024/03/12 17:42:47;;;;;;;;;;;9.80;99.90;;;;;;6689605;88;20120;-75
2024/03/12 17:52:49;;;;;;;;;;;9.30;99.90;;;;;;6695814;88;20076;-76
2024/03/12 18:02:50;;;;;;;;;;;8.90;99.90;;;;;;6699952;88;20068;-78
2024/03/12 18:12:51;;;;;;;;;;;8.70;99.90;;;;;;6695218;88;20565;-77
2024/03/12 18:22:52;;;;;;;;;;;8.60;99.90;;;;;;6691393;88;20125;-76
2024/03/12 18:32:53;;;;;;;;;;;8.40;99.90;;;;;;6691176;88;20686;-78
2024/03/12 18:42:54;;;;;;;;;;;8.30;99.90;;;;;;6691658;88;20692;-76
2024/03/12 18:52:54;;;;;;;;;;;8.20;99.90;;;;;;6689082;88;20064;-76
2024/03/12 19:02:58;;;;;;;;;;;8.20;99.90;;;;;;6699045;88;20073;-76
2024/03/12 19:12:59;;;;;;;;;;;8.10;99.90;;;;;;6693254;88;20061;-76
2024/03/12 19:22:59;;;;;;;;;;;8.00;99.90;;;;;;6689402;88;20050;-76
2024/03/12 19:33:00;;;;;;;;;;;7.90;99.90;;;;;;6691022;88;20067;-76
2024/03/12 19:43:00;;;;;;;;;;;7.70;99.90;;;;;;6687745;88;20076;-77
2024/03/12 19:53:02;;;;;;;;;;;7.70;99.90;;;;;;6691712;88;20062;-76
2024/03/12 20:03:06;;;;;;;;;;;7.60;99.90;;;;;;6689490;88;20526;-77
2024/03/12 20:13:07;;;;;;;;;;;7.60;99.90;;;;;;6689398;88;20083;-76
2024/03/12 20:23:07;;;;;;;;;;;7.50;99.90;;;;;;6693506;88;20091;-77
2024/03/12 20:33:07;;;;;;;;;;;7.50;99.90;;;;;;6692731;88;20089;-77
2024/03/12 20:43:08;;;;;;;;;;;7.60;99.90;;;;;;6688645;88;20055;-76
2024/03/12 20:53:10;;;;;;;;;;;7.60;99.90;;;;;;6692155;88;20094;-77
2024/03/12 21:03:10;;;;;;;;;;;7.60;99.90;;;;;;6690283;88;20232;-78
2024/03/12 21:13:11;;;;;;;;;;;7.60;99.90;;;;;;6704954;88;20048;-78
2024/03/12 21:23:11;;;;;;;;;;;7.60;99.90;;;;;;6698916;88;20146;-78
2024/03/12 21:33:13;;;;;;;;;;;7.60;99.90;;;;;;6695575;88;20071;-77
2024/03/12 21:43:14;;;;;;;;;;;7.50;99.90;;;;;;6692239;88;20085;-76
2024/03/12 22:03:18;;;;;;;;;;;7.50;99.90;;;;;;6734529;88;20110;-77
2024/03/12 22:13:18;;;;;;;;;;;7.50;99.90;;;;;;6724779;88;20152;-77
2024/03/12 22:23:23;;;;;;;;;;;7.50;99.90;;;;;;6717662;88;20133;-76
2024/03/12 22:33:24;;;;;;;;;;;7.50;99.90;;;;;;6720158;88;20121;-75
2024/03/12 22:43:28;;;;;;;;;;;7.50;99.90;;;;;;6717944;88;20060;-76
2024/03/12 22:53:29;;;;;;;;;;;7.50;99.90;;;;;;6720119;88;20102;-77
2024/03/12 23:03:30;;;;;;;;;;;7.50;99.90;;;;;;6720815;88;20079;-76
2024/03/12 23:13:30;;;;;;;;;;;7.60;99.90;;;;;;6724701;88;20071;-77
2024/03/12 23:23:31;;;;;;;;;;;7.60;99.90;;;;;;6718425;88;20059;-76
2024/03/12 23:33:31;;;;;;;;;;;7.60;99.90;;;;;;6714791;88;20107;-76
2024/03/12 23:43:32;;;;;;;;;;;7.60;99.90;;;;;;6716404;88;20051;-76
2024/03/12 23:53:32;;;;;;;;;;;7.60;99.90;;;;;;6715692;88;20060;-77
